KEOK/EOK METAR and TAF weather

Enter ICAO airport designator
Station Type Date Time Source
KEOK METAR 2019/06/18 15:35 UTC NOAA

KEOK 181535Z AUTO 00000KT 10SM SCT021 BKN026 22/17 A2997 RMK AO2


Station Type Date Time Source
KEOK Decoded METAR 2019/06/18 15:35 UTC NOAA

Keokuk Municipal, IA, United States (KEOK) 40-28N 091-26W
Jun 18, 2019 - 11:35 AM EDT / 2019.06.18 1535 UTC
Wind: Calm:0
Visibility: 10 mile(s):0
Sky conditions: mostly cloudy
Temperature: 71 F (22 C)
Dew Point: 62 F (17 C)
Relative Humidity: 73%
Pressure (altimeter): 29.97 in. Hg (1014 hPa)
ob: KEOK 181535Z AUTO 00000KT 10SM SCT021 BKN026 22/17 A2997 RMK AO2
cycle: 15

Station Type Date Time Source
KEOK TAF UTC NOAA

Error!

Example: see airport list